sensor_id;sensor_type;location;lat;lon;timestamp;temperature;humidity
42841;DHT22;28491;46.898;7.660;2022-10-31T00:01:46;9.60;71.30
42841;DHT22;28491;46.898;7.660;2022-10-31T00:04:10;9.50;72.00
42841;DHT22;28491;46.898;7.660;2022-10-31T00:06:36;9.40;71.80
42841;DHT22;28491;46.898;7.660;2022-10-31T00:09:03;9.40;72.40
42841;DHT22;28491;46.898;7.660;2022-10-31T00:11:29;9.30;72.60
42841;DHT22;28491;46.898;7.660;2022-10-31T00:13:57;9.20;72.70
42841;DHT22;28491;46.898;7.660;2022-10-31T00:16:24;9.30;74.10
42841;DHT22;28491;46.898;7.660;2022-10-31T00:18:54;9.30;73.80
42841;DHT22;28491;46.898;7.660;2022-10-31T00:21:21;9.30;73.60
42841;DHT22;28491;46.898;7.660;2022-10-31T00:23:47;9.30;73.50
42841;DHT22;28491;46.898;7.660;2022-10-31T00:26:13;9.40;73.30
42841;DHT22;28491;46.898;7.660;2022-10-31T00:28:38;9.40;73.00
42841;DHT22;28491;46.898;7.660;2022-10-31T00:31:06;9.30;73.20
42841;DHT22;28491;46.898;7.660;2022-10-31T00:33:37;9.30;73.50
42841;DHT22;28491;46.898;7.660;2022-10-31T00:36:03;9.30;73.80
42841;DHT22;28491;46.898;7.660;2022-10-31T00:38:30;9.40;73.60
42841;DHT22;28491;46.898;7.660;2022-10-31T00:40:55;9.40;73.20
42841;DHT22;28491;46.898;7.660;2022-10-31T00:43:21;9.40;73.60
42841;DHT22;28491;46.898;7.660;2022-10-31T00:45:47;9.40;73.40
42841;DHT22;28491;46.898;7.660;2022-10-31T00:48:12;9.40;73.10
42841;DHT22;28491;46.898;7.660;2022-10-31T00:50:38;9.40;73.20
42841;DHT22;28491;46.898;7.660;2022-10-31T00:53:04;9.60;73.00
42841;DHT22;28491;46.898;7.660;2022-10-31T00:55:30;9.60;72.90
42841;DHT22;28491;46.898;7.660;2022-10-31T00:57:56;9.70;72.00
42841;DHT22;28491;46.898;7.660;2022-10-31T01:00:21;9.60;71.70
42841;DHT22;28491;46.898;7.660;2022-10-31T01:02:47;9.60;71.80
42841;DHT22;28491;46.898;7.660;2022-10-31T01:05:13;9.60;71.60
42841;DHT22;28491;46.898;7.660;2022-10-31T01:07:40;9.70;71.10
42841;DHT22;28491;46.898;7.660;2022-10-31T01:10:07;9.50;71.70
42841;DHT22;28491;46.898;7.660;2022-10-31T01:12:37;9.50;71.40
42841;DHT22;28491;46.898;7.660;2022-10-31T01:15:03;9.60;71.40
42841;DHT22;28491;46.898;7.660;2022-10-31T01:17:29;9.60;71.50
42841;DHT22;28491;46.898;7.660;2022-10-31T01:19:54;9.50;71.30
42841;DHT22;28491;46.898;7.660;2022-10-31T01:22:20;9.50;71.30
42841;DHT22;28491;46.898;7.660;2022-10-31T01:24:45;9.50;71.20
42841;DHT22;28491;46.898;7.660;2022-10-31T01:27:11;9.50;71.40
42841;DHT22;28491;46.898;7.660;2022-10-31T01:29:37;9.50;71.20
42841;DHT22;28491;46.898;7.660;2022-10-31T01:32:02;9.60;70.70
42841;DHT22;28491;46.898;7.660;2022-10-31T01:34:28;9.60;70.30
42841;DHT22;28491;46.898;7.660;2022-10-31T01:36:53;9.60;70.60
42841;DHT22;28491;46.898;7.660;2022-10-31T01:39:19;9.60;70.50
42841;DHT22;28491;46.898;7.660;2022-10-31T01:41:47;9.60;70.50
42841;DHT22;28491;46.898;7.660;2022-10-31T01:46:45;9.80;69.10
42841;DHT22;28491;46.898;7.660;2022-10-31T01:49:36;9.60;69.30
42841;DHT22;28491;46.898;7.660;2022-10-31T01:52:07;9.60;69.70
42841;DHT22;28491;46.898;7.660;2022-10-31T01:54:39;9.50;70.10
42841;DHT22;28491;46.898;7.660;2022-10-31T01:57:06;9.60;70.60
42841;DHT22;28491;46.898;7.660;2022-10-31T01:59:36;9.60;70.20
42841;DHT22;28491;46.898;7.660;2022-10-31T02:02:05;9.70;70.40
42841;DHT22;28491;46.898;7.660;2022-10-31T02:04:31;9.60;70.10
42841;DHT22;28491;46.898;7.660;2022-10-31T02:07:11;9.60;69.90
42841;DHT22;28491;46.898;7.660;2022-10-31T02:09:39;9.70;70.10
42841;DHT22;28491;46.898;7.660;2022-10-31T02:12:06;9.70;69.90
42841;DHT22;28491;46.898;7.660;2022-10-31T02:14:34;9.60;69.60
42841;DHT22;28491;46.898;7.660;2022-10-31T02:17:00;9.70;69.30
42841;DHT22;28491;46.898;7.660;2022-10-31T02:19:52;9.60;69.20
42841;DHT22;28491;46.898;7.660;2022-10-31T02:22:30;9.70;68.60
42841;DHT22;28491;46.898;7.660;2022-10-31T02:34:04;9.70;68.80
42841;DHT22;28491;46.898;7.660;2022-10-31T02:36:41;9.90;68.40
42841;DHT22;28491;46.898;7.660;2022-10-31T02:39:26;9.80;68.30
42841;DHT22;28491;46.898;7.660;2022-10-31T02:42:07;9.70;68.80
42841;DHT22;28491;46.898;7.660;2022-10-31T02:44:36;9.70;68.70
42841;DHT22;28491;46.898;7.660;2022-10-31T02:47:04;9.70;68.90
42841;DHT22;28491;46.898;7.660;2022-10-31T02:49:57;9.70;68.60
42841;DHT22;28491;46.898;7.660;2022-10-31T02:52:27;9.80;68.60
42841;DHT22;28491;46.898;7.660;2022-10-31T02:54:53;9.80;68.70
42841;DHT22;28491;46.898;7.660;2022-10-31T02:57:31;9.80;68.70
42841;DHT22;28491;46.898;7.660;2022-10-31T03:00:00;9.80;68.80
42841;DHT22;28491;46.898;7.660;2022-10-31T03:02:43;9.70;68.70
42841;DHT22;28491;46.898;7.660;2022-10-31T03:05:23;9.70;68.80
42841;DHT22;28491;46.898;7.660;2022-10-31T03:08:12;9.60;68.90
42841;DHT22;28491;46.898;7.660;2022-10-31T03:16:18;9.40;69.80
42841;DHT22;28491;46.898;7.660;2022-10-31T03:21:16;9.40;69.90
42841;DHT22;28491;46.898;7.660;2022-10-31T03:23:46;9.40;69.90
42841;DHT22;28491;46.898;7.660;2022-10-31T03:26:13;9.50;69.70
42841;DHT22;28491;46.898;7.660;2022-10-31T03:28:51;9.40;69.90
42841;DHT22;28491;46.898;7.660;2022-10-31T03:31:19;9.40;70.10
42841;DHT22;28491;46.898;7.660;2022-10-31T03:33:47;9.40;70.70
42841;DHT22;28491;46.898;7.660;2022-10-31T03:36:15;9.50;70.00
42841;DHT22;28491;46.898;7.660;2022-10-31T03:38:43;9.50;70.10
42841;DHT22;28491;46.898;7.660;2022-10-31T03:41:13;9.50;69.40
42841;DHT22;28491;46.898;7.660;2022-10-31T03:43:45;9.40;69.60
42841;DHT22;28491;46.898;7.660;2022-10-31T03:46:12;9.30;70.20
42841;DHT22;28491;46.898;7.660;2022-10-31T03:48:38;9.30;70.10
42841;DHT22;28491;46.898;7.660;2022-10-31T03:54:46;9.10;71.70
42841;DHT22;28491;46.898;7.660;2022-10-31T03:59:53;9.20;71.20
42841;DHT22;28491;46.898;7.660;2022-10-31T04:02:22;9.20;71.40
42841;DHT22;28491;46.898;7.660;2022-10-31T04:04:51;9.20;71.50
42841;DHT22;28491;46.898;7.660;2022-10-31T04:07:17;9.20;71.30
42841;DHT22;28491;46.898;7.660;2022-10-31T04:09:45;9.20;71.30
42841;DHT22;28491;46.898;7.660;2022-10-31T04:12:14;9.30;71.00
42841;DHT22;28491;46.898;7.660;2022-10-31T04:14:43;9.30;70.70
42841;DHT22;28491;46.898;7.660;2022-10-31T04:17:12;9.30;70.00
42841;DHT22;28491;46.898;7.660;2022-10-31T04:19:39;9.40;69.70
42841;DHT22;28491;46.898;7.660;2022-10-31T04:22:04;9.30;69.60
42841;DHT22;28491;46.898;7.660;2022-10-31T04:24:30;9.40;69.40
42841;DHT22;28491;46.898;7.660;2022-10-31T04:26:55;9.40;69.40
42841;DHT22;28491;46.898;7.660;2022-10-31T04:29:21;9.40;69.40
42841;DHT22;28491;46.898;7.660;2022-10-31T04:31:46;9.30;70.30
42841;DHT22;28491;46.898;7.660;2022-10-31T04:34:12;9.20;70.70
42841;DHT22;28491;46.898;7.660;2022-10-31T04:36:37;9.20;71.30
42841;DHT22;28491;46.898;7.660;2022-10-31T04:39:03;9.20;71.40
42841;DHT22;28491;46.898;7.660;2022-10-31T04:41:29;9.30;70.70
42841;DHT22;28491;46.898;7.660;2022-10-31T04:43:54;9.30;70.60
42841;DHT22;28491;46.898;7.660;2022-10-31T04:46:20;9.30;70.80
42841;DHT22;28491;46.898;7.660;2022-10-31T04:48:45;9.30;70.40
42841;DHT22;28491;46.898;7.660;2022-10-31T04:51:11;9.20;70.70
42841;DHT22;28491;46.898;7.660;2022-10-31T04:53:37;9.20;71.20
42841;DHT22;28491;46.898;7.660;2022-10-31T04:56:02;9.20;71.00
42841;DHT22;28491;46.898;7.660;2022-10-31T04:58:28;9.30;70.90
42841;DHT22;28491;46.898;7.660;2022-10-31T05:00:55;9.30;70.70
42841;DHT22;28491;46.898;7.660;2022-10-31T05:03:21;9.40;70.30
42841;DHT22;28491;46.898;7.660;2022-10-31T05:05:46;9.40;69.90
42841;DHT22;28491;46.898;7.660;2022-10-31T05:08:12;9.30;69.70
42841;DHT22;28491;46.898;7.660;2022-10-31T05:10:38;9.20;70.10
42841;DHT22;28491;46.898;7.660;2022-10-31T05:13:04;9.10;70.70
42841;DHT22;28491;46.898;7.660;2022-10-31T05:15:30;9.10;70.90
42841;DHT22;28491;46.898;7.660;2022-10-31T05:17:56;9.10;71.40
42841;DHT22;28491;46.898;7.660;2022-10-31T05:20:24;9.10;71.60
42841;DHT22;28491;46.898;7.660;2022-10-31T05:22:52;9.10;71.70
42841;DHT22;28491;46.898;7.660;2022-10-31T05:25:19;9.20;71.70
42841;DHT22;28491;46.898;7.660;2022-10-31T05:27:48;9.10;72.00
42841;DHT22;28491;46.898;7.660;2022-10-31T05:30:16;9.20;71.60
42841;DHT22;28491;46.898;7.660;2022-10-31T05:32:44;9.20;71.50
42841;DHT22;28491;46.898;7.660;2022-10-31T05:35:14;9.20;71.00
42841;DHT22;28491;46.898;7.660;2022-10-31T05:37:40;9.10;71.40
42841;DHT22;28491;46.898;7.660;2022-10-31T05:40:08;9.10;72.10
42841;DHT22;28491;46.898;7.660;2022-10-31T05:42:34;9.00;72.70
42841;DHT22;28491;46.898;7.660;2022-10-31T05:45:00;9.00;72.80
42841;DHT22;28491;46.898;7.660;2022-10-31T05:47:26;9.00;73.20
42841;DHT22;28491;46.898;7.660;2022-10-31T05:49:51;8.90;73.20
42841;DHT22;28491;46.898;7.660;2022-10-31T05:52:17;8.80;73.70
42841;DHT22;28491;46.898;7.660;2022-10-31T05:54:43;8.60;74.20
42841;DHT22;28491;46.898;7.660;2022-10-31T05:57:09;8.60;75.50
42841;DHT22;28491;46.898;7.660;2022-10-31T05:59:34;8.60;75.80
42841;DHT22;28491;46.898;7.660;2022-10-31T06:02:00;8.70;75.00
42841;DHT22;28491;46.898;7.660;2022-10-31T06:04:26;8.60;75.60
42841;DHT22;28491;46.898;7.660;2022-10-31T06:06:51;8.70;76.10
42841;DHT22;28491;46.898;7.660;2022-10-31T06:09:17;8.70;76.20
42841;DHT22;28491;46.898;7.660;2022-10-31T06:11:42;8.70;76.10
42841;DHT22;28491;46.898;7.660;2022-10-31T06:14:08;8.80;75.60
42841;DHT22;28491;46.898;7.660;2022-10-31T06:16:33;8.80;75.80
42841;DHT22;28491;46.898;7.660;2022-10-31T06:18:59;8.70;74.80
42841;DHT22;28491;46.898;7.660;2022-10-31T06:21:24;8.60;74.90
42841;DHT22;28491;46.898;7.660;2022-10-31T06:23:50;8.60;75.90
42841;DHT22;28491;46.898;7.660;2022-10-31T06:26:16;8.80;76.30
42841;DHT22;28491;46.898;7.660;2022-10-31T06:28:42;8.80;75.30
42841;DHT22;28491;46.898;7.660;2022-10-31T06:31:07;8.90;75.00
42841;DHT22;28491;46.898;7.660;2022-10-31T06:33:33;8.90;74.80
42841;DHT22;28491;46.898;7.660;2022-10-31T06:35:59;9.00;74.60
42841;DHT22;28491;46.898;7.660;2022-10-31T06:38:26;9.10;73.90
42841;DHT22;28491;46.898;7.660;2022-10-31T06:40:52;9.10;73.00
42841;DHT22;28491;46.898;7.660;2022-10-31T06:43:19;9.20;73.00
42841;DHT22;28491;46.898;7.660;2022-10-31T06:45:44;9.20;72.40
42841;DHT22;28491;46.898;7.660;2022-10-31T06:48:10;9.30;72.00
42841;DHT22;28491;46.898;7.660;2022-10-31T06:50:35;9.40;72.10
42841;DHT22;28491;46.898;7.660;2022-10-31T06:53:01;9.50;71.30
42841;DHT22;28491;46.898;7.660;2022-10-31T06:55:27;9.60;70.20
42841;DHT22;28491;46.898;7.660;2022-10-31T06:57:57;9.70;70.10
42841;DHT22;28491;46.898;7.660;2022-10-31T07:00:24;9.80;70.10
42841;DHT22;28491;46.898;7.660;2022-10-31T07:02:59;9.80;70.00
42841;DHT22;28491;46.898;7.660;2022-10-31T07:05:25;9.90;70.20
42841;DHT22;28491;46.898;7.660;2022-10-31T07:07:53;10.00;69.00
42841;DHT22;28491;46.898;7.660;2022-10-31T07:10:19;10.30;68.60
42841;DHT22;28491;46.898;7.660;2022-10-31T07:12:44;10.70;67.10
42841;DHT22;28491;46.898;7.660;2022-10-31T07:15:11;11.00;65.70
42841;DHT22;28491;46.898;7.660;2022-10-31T07:17:36;11.20;65.20
42841;DHT22;28491;46.898;7.660;2022-10-31T07:20:02;11.50;64.20
42841;DHT22;28491;46.898;7.660;2022-10-31T07:22:37;11.90;63.10
42841;DHT22;28491;46.898;7.660;2022-10-31T07:25:03;12.10;62.60
42841;DHT22;28491;46.898;7.660;2022-10-31T07:27:38;11.90;62.60
42841;DHT22;28491;46.898;7.660;2022-10-31T07:30:04;11.60;63.30
42841;DHT22;28491;46.898;7.660;2022-10-31T07:32:41;11.50;64.80
42841;DHT22;28491;46.898;7.660;2022-10-31T07:35:08;11.30;65.40
42841;DHT22;28491;46.898;7.660;2022-10-31T07:37:34;11.20;67.10
42841;DHT22;28491;46.898;7.660;2022-10-31T07:40:00;11.10;66.80
42841;DHT22;28491;46.898;7.660;2022-10-31T07:42:26;11.10;66.70
42841;DHT22;28491;46.898;7.660;2022-10-31T07:44:51;11.10;66.60
42841;DHT22;28491;46.898;7.660;2022-10-31T07:47:17;11.10;68.10
42841;DHT22;28491;46.898;7.660;2022-10-31T07:49:42;11.10;68.20
42841;DHT22;28491;46.898;7.660;2022-10-31T07:52:08;11.10;67.60
42841;DHT22;28491;46.898;7.660;2022-10-31T07:54:33;11.20;67.00
42841;DHT22;28491;46.898;7.660;2022-10-31T07:56:59;11.40;66.60
42841;DHT22;28491;46.898;7.660;2022-10-31T07:59:24;11.50;65.50
42841;DHT22;28491;46.898;7.660;2022-10-31T08:01:51;11.80;64.40
42841;DHT22;28491;46.898;7.660;2022-10-31T08:04:16;11.80;64.70
42841;DHT22;28491;46.898;7.660;2022-10-31T08:06:42;11.70;65.60
42841;DHT22;28491;46.898;7.660;2022-10-31T08:09:07;11.70;66.10
42841;DHT22;28491;46.898;7.660;2022-10-31T08:11:33;11.90;64.70
42841;DHT22;28491;46.898;7.660;2022-10-31T08:13:58;12.70;62.50
42841;DHT22;28491;46.898;7.660;2022-10-31T08:16:24;12.90;61.60
42841;DHT22;28491;46.898;7.660;2022-10-31T08:18:49;13.10;62.20
42841;DHT22;28491;46.898;7.660;2022-10-31T08:21:15;13.50;61.10
42841;DHT22;28491;46.898;7.660;2022-10-31T08:23:40;14.70;53.70
42841;DHT22;28491;46.898;7.660;2022-10-31T08:26:06;15.60;40.60
42841;DHT22;28491;46.898;7.660;2022-10-31T08:28:32;16.00;30.00
42841;DHT22;28491;46.898;7.660;2022-10-31T08:30:58;15.80;28.70
42841;DHT22;28491;46.898;7.660;2022-10-31T08:33:24;15.70;29.10
42841;DHT22;28491;46.898;7.660;2022-10-31T08:35:50;15.40;35.40
42841;DHT22;28491;46.898;7.660;2022-10-31T08:38:16;15.60;36.20
42841;DHT22;28491;46.898;7.660;2022-10-31T08:40:41;15.50;39.40
42841;DHT22;28491;46.898;7.660;2022-10-31T08:43:12;15.50;36.70
42841;DHT22;28491;46.898;7.660;2022-10-31T08:45:37;15.80;30.00
42841;DHT22;28491;46.898;7.660;2022-10-31T08:48:06;15.60;34.10
42841;DHT22;28491;46.898;7.660;2022-10-31T08:50:33;15.20;39.30
42841;DHT22;28491;46.898;7.660;2022-10-31T08:53:25;14.80;48.30
42841;DHT22;28491;46.898;7.660;2022-10-31T08:55:49;14.30;60.40
42841;DHT22;28491;46.898;7.660;2022-10-31T08:58:18;13.90;60.90
42841;DHT22;28491;46.898;7.660;2022-10-31T09:00:46;13.70;62.70
42841;DHT22;28491;46.898;7.660;2022-10-31T09:03:14;13.60;63.30
42841;DHT22;28491;46.898;7.660;2022-10-31T09:05:40;13.60;64.50
42841;DHT22;28491;46.898;7.660;2022-10-31T09:08:07;13.40;65.50
42841;DHT22;28491;46.898;7.660;2022-10-31T09:10:34;13.40;66.70
42841;DHT22;28491;46.898;7.660;2022-10-31T09:13:04;13.40;65.60
42841;DHT22;28491;46.898;7.660;2022-10-31T09:15:33;13.50;64.50
42841;DHT22;28491;46.898;7.660;2022-10-31T09:17:59;13.50;64.30
42841;DHT22;28491;46.898;7.660;2022-10-31T09:20:25;13.30;63.90
42841;DHT22;28491;46.898;7.660;2022-10-31T09:23:07;13.40;64.00
42841;DHT22;28491;46.898;7.660;2022-10-31T09:25:33;13.40;63.80
42841;DHT22;28491;46.898;7.660;2022-10-31T09:28:01;13.40;63.80
42841;DHT22;28491;46.898;7.660;2022-10-31T09:30:28;13.40;64.30
42841;DHT22;28491;46.898;7.660;2022-10-31T09:32:59;13.50;64.60
42841;DHT22;28491;46.898;7.660;2022-10-31T09:35:25;13.60;64.80
42841;DHT22;28491;46.898;7.660;2022-10-31T09:37:55;13.60;63.20
42841;DHT22;28491;46.898;7.660;2022-10-31T09:40:21;13.70;64.40
42841;DHT22;28491;46.898;7.660;2022-10-31T09:42:53;13.80;63.70
42841;DHT22;28491;46.898;7.660;2022-10-31T09:45:47;13.70;63.20
42841;DHT22;28491;46.898;7.660;2022-10-31T09:51:24;13.80;63.50
42841;DHT22;28491;46.898;7.660;2022-10-31T09:56:22;13.90;64.00
42841;DHT22;28491;46.898;7.660;2022-10-31T09:58:54;13.90;65.10
42841;DHT22;28491;46.898;7.660;2022-10-31T10:01:32;14.00;65.70
42841;DHT22;28491;46.898;7.660;2022-10-31T10:07:17;14.90;63.10
42841;DHT22;28491;46.898;7.660;2022-10-31T10:09:44;15.40;60.60
42841;DHT22;28491;46.898;7.660;2022-10-31T10:12:19;15.80;45.70
42841;DHT22;28491;46.898;7.660;2022-10-31T10:25:39;17.70;47.30
42841;DHT22;28491;46.898;7.660;2022-10-31T10:28:14;17.90;42.30
42841;DHT22;28491;46.898;7.660;2022-10-31T10:30:47;17.80;40.70
42841;DHT22;28491;46.898;7.660;2022-10-31T10:33:33;17.70;47.60
42841;DHT22;28491;46.898;7.660;2022-10-31T10:36:00;17.30;46.70
42841;DHT22;28491;46.898;7.660;2022-10-31T10:38:49;17.10;49.10
42841;DHT22;28491;46.898;7.660;2022-10-31T10:41:21;17.10;53.60
42841;DHT22;28491;46.898;7.660;2022-10-31T10:43:49;17.10;57.00
42841;DHT22;28491;46.898;7.660;2022-10-31T10:46:23;17.30;51.60
42841;DHT22;28491;46.898;7.660;2022-10-31T10:49:32;17.40;46.50
42841;DHT22;28491;46.898;7.660;2022-10-31T10:59:53;17.80;32.10
42841;DHT22;28491;46.898;7.660;2022-10-31T11:02:23;18.00;25.90
42841;DHT22;28491;46.898;7.660;2022-10-31T11:04:55;18.10;40.50
42841;DHT22;28491;46.898;7.660;2022-10-31T11:07:22;18.00;26.70
42841;DHT22;28491;46.898;7.660;2022-10-31T11:09:48;17.60;28.60
42841;DHT22;28491;46.898;7.660;2022-10-31T11:12:24;17.80;33.20
42841;DHT22;28491;46.898;7.660;2022-10-31T11:14:54;18.20;42.90
42841;DHT22;28491;46.898;7.660;2022-10-31T11:17:28;18.50;30.00
42841;DHT22;28491;46.898;7.660;2022-10-31T11:20:27;18.70;39.50
42841;DHT22;28491;46.898;7.660;2022-10-31T11:23:17;18.70;28.50
42841;DHT22;28491;46.898;7.660;2022-10-31T11:26:16;19.00;41.50
42841;DHT22;28491;46.898;7.660;2022-10-31T11:28:43;19.10;35.30
42841;DHT22;28491;46.898;7.660;2022-10-31T11:31:12;19.20;34.80
42841;DHT22;28491;46.898;7.660;2022-10-31T11:33:47;19.10;31.20
42841;DHT22;28491;46.898;7.660;2022-10-31T11:36:24;19.00;25.70
42841;DHT22;28491;46.898;7.660;2022-10-31T11:38:51;19.00;22.50
42841;DHT22;28491;46.898;7.660;2022-10-31T11:41:17;19.00;24.80
42841;DHT22;28491;46.898;7.660;2022-10-31T11:44:26;19.10;19.90
42841;DHT22;28491;46.898;7.660;2022-10-31T11:46:52;19.10;29.00
42841;DHT22;28491;46.898;7.660;2022-10-31T11:49:39;19.30;26.70
42841;DHT22;28491;46.898;7.660;2022-10-31T11:52:25;19.20;21.30
42841;DHT22;28491;46.898;7.660;2022-10-31T11:57:43;19.20;22.50
42841;DHT22;28491;46.898;7.660;2022-10-31T12:02:51;19.20;18.90
42841;DHT22;28491;46.898;7.660;2022-10-31T12:05:29;19.50;19.10
42841;DHT22;28491;46.898;7.660;2022-10-31T12:07:58;19.70;28.90
42841;DHT22;28491;46.898;7.660;2022-10-31T12:10:30;19.90;25.10
42841;DHT22;28491;46.898;7.660;2022-10-31T12:15:38;20.10;23.00
42841;DHT22;28491;46.898;7.660;2022-10-31T12:24:16;20.20;21.50
42841;DHT22;28491;46.898;7.660;2022-10-31T12:45:53;19.80;14.30
42841;DHT22;28491;46.898;7.660;2022-10-31T12:48:30;20.00;19.20
42841;DHT22;28491;46.898;7.660;2022-10-31T12:51:21;20.10;21.70
42841;DHT22;28491;46.898;7.660;2022-10-31T12:53:59;20.10;21.00
42841;DHT22;28491;46.898;7.660;2022-10-31T12:56:43;20.10;16.30
42841;DHT22;28491;46.898;7.660;2022-10-31T12:59:28;20.20;17.20
42841;DHT22;28491;46.898;7.660;2022-10-31T13:02:09;20.40;22.30
42841;DHT22;28491;46.898;7.660;2022-10-31T13:07:24;20.50;20.20
42841;DHT22;28491;46.898;7.660;2022-10-31T13:09:59;20.40;20.80
42841;DHT22;28491;46.898;7.660;2022-10-31T13:12:28;20.50;23.80
42841;DHT22;28491;46.898;7.660;2022-10-31T13:14:58;20.50;24.40
42841;DHT22;28491;46.898;7.660;2022-10-31T13:17:34;20.50;25.80
42841;DHT22;28491;46.898;7.660;2022-10-31T13:22:55;20.20;34.20
42841;DHT22;28491;46.898;7.660;2022-10-31T13:25:25;20.20;25.60
42841;DHT22;28491;46.898;7.660;2022-10-31T13:28:05;20.00;36.10
42841;DHT22;28491;46.898;7.660;2022-10-31T13:30:40;19.80;30.30
42841;DHT22;28491;46.898;7.660;2022-10-31T13:41:04;18.80;41.20
42841;DHT22;28491;46.898;7.660;2022-10-31T13:48:56;19.10;44.50
42841;DHT22;28491;46.898;7.660;2022-10-31T13:51:30;19.00;40.80
42841;DHT22;28491;46.898;7.660;2022-10-31T13:53:59;18.90;50.50
42841;DHT22;28491;46.898;7.660;2022-10-31T13:56:31;18.80;45.80
42841;DHT22;28491;46.898;7.660;2022-10-31T14:01:35;19.00;41.80
42841;DHT22;28491;46.898;7.660;2022-10-31T14:06:38;19.10;48.20
42841;DHT22;28491;46.898;7.660;2022-10-31T14:09:05;19.10;37.60
42841;DHT22;28491;46.898;7.660;2022-10-31T14:11:31;19.20;36.20
42841;DHT22;28491;46.898;7.660;2022-10-31T14:13:58;19.30;42.30
42841;DHT22;28491;46.898;7.660;2022-10-31T14:16:27;19.30;42.00
42841;DHT22;28491;46.898;7.660;2022-10-31T14:19:17;19.20;41.00
42841;DHT22;28491;46.898;7.660;2022-10-31T14:21:45;18.90;34.70
42841;DHT22;28491;46.898;7.660;2022-10-31T14:24:35;18.60;37.90
42841;DHT22;28491;46.898;7.660;2022-10-31T14:29:45;18.30;45.40
42841;DHT22;28491;46.898;7.660;2022-10-31T14:34:50;18.40;43.80
42841;DHT22;28491;46.898;7.660;2022-10-31T14:43:04;18.30;52.50
42841;DHT22;28491;46.898;7.660;2022-10-31T14:50:52;18.10;50.70
42841;DHT22;28491;46.898;7.660;2022-10-31T14:53:32;17.90;55.00
42841;DHT22;28491;46.898;7.660;2022-10-31T14:55:59;17.60;55.20
42841;DHT22;28491;46.898;7.660;2022-10-31T14:58:33;17.40;54.20
42841;DHT22;28491;46.898;7.660;2022-10-31T15:01:00;17.30;61.30
42841;DHT22;28491;46.898;7.660;2022-10-31T15:03:36;17.20;63.10
42841;DHT22;28491;46.898;7.660;2022-10-31T15:06:11;17.00;65.30
42841;DHT22;28491;46.898;7.660;2022-10-31T15:08:45;16.90;65.40
42841;DHT22;28491;46.898;7.660;2022-10-31T15:11:12;16.80;64.90
42841;DHT22;28491;46.898;7.660;2022-10-31T15:13:47;16.70;63.30
42841;DHT22;28491;46.898;7.660;2022-10-31T15:16:15;16.80;63.20
42841;DHT22;28491;46.898;7.660;2022-10-31T15:18:49;16.70;64.50
42841;DHT22;28491;46.898;7.660;2022-10-31T15:21:17;16.60;64.60
42841;DHT22;28491;46.898;7.660;2022-10-31T15:23:43;16.60;66.40
42841;DHT22;28491;46.898;7.660;2022-10-31T15:26:21;16.60;67.20
42841;DHT22;28491;46.898;7.660;2022-10-31T15:29:19;16.60;66.90
42841;DHT22;28491;46.898;7.660;2022-10-31T15:31:54;16.50;65.90
42841;DHT22;28491;46.898;7.660;2022-10-31T15:36:49;16.50;65.40
42841;DHT22;28491;46.898;7.660;2022-10-31T15:39:16;16.40;65.70
42841;DHT22;28491;46.898;7.660;2022-10-31T15:41:58;16.30;65.10
42841;DHT22;28491;46.898;7.660;2022-10-31T15:44:36;16.30;64.80
42841;DHT22;28491;46.898;7.660;2022-10-31T15:47:12;16.00;66.00
42841;DHT22;28491;46.898;7.660;2022-10-31T15:49:42;15.90;67.30
42841;DHT22;28491;46.898;7.660;2022-10-31T15:52:34;15.80;66.80
42841;DHT22;28491;46.898;7.660;2022-10-31T15:55:21;15.80;66.90
42841;DHT22;28491;46.898;7.660;2022-10-31T15:58:11;15.60;67.20
42841;DHT22;28491;46.898;7.660;2022-10-31T16:00:38;15.50;67.60
42841;DHT22;28491;46.898;7.660;2022-10-31T16:05:52;15.20;67.80
42841;DHT22;28491;46.898;7.660;2022-10-31T16:13:37;15.00;68.30
42841;DHT22;28491;46.898;7.660;2022-10-31T16:16:10;14.90;68.70
42841;DHT22;28491;46.898;7.660;2022-10-31T16:18:37;14.70;69.00
42841;DHT22;28491;46.898;7.660;2022-10-31T16:21:06;14.60;68.00
42841;DHT22;28491;46.898;7.660;2022-10-31T16:23:32;14.70;69.30
42841;DHT22;28491;46.898;7.660;2022-10-31T16:25:58;14.80;70.90
42841;DHT22;28491;46.898;7.660;2022-10-31T16:28:25;14.80;70.60
42841;DHT22;28491;46.898;7.660;2022-10-31T16:30:53;14.70;69.70
42841;DHT22;28491;46.898;7.660;2022-10-31T16:35:58;14.60;69.40
42841;DHT22;28491;46.898;7.660;2022-10-31T16:38:24;14.70;68.70
42841;DHT22;28491;46.898;7.660;2022-10-31T16:40:51;14.70;68.50
42841;DHT22;28491;46.898;7.660;2022-10-31T16:43:18;14.60;68.70
42841;DHT22;28491;46.898;7.660;2022-10-31T16:45:46;14.50;69.50
42841;DHT22;28491;46.898;7.660;2022-10-31T16:48:18;14.40;70.00
42841;DHT22;28491;46.898;7.660;2022-10-31T16:50:46;14.40;69.70
42841;DHT22;28491;46.898;7.660;2022-10-31T16:53:12;14.20;70.00
42841;DHT22;28491;46.898;7.660;2022-10-31T16:58:21;14.20;70.40
42841;DHT22;28491;46.898;7.660;2022-10-31T17:00:48;14.20;70.40
42841;DHT22;28491;46.898;7.660;2022-10-31T17:03:14;14.10;70.70
42841;DHT22;28491;46.898;7.660;2022-10-31T17:05:39;13.90;71.40
42841;DHT22;28491;46.898;7.660;2022-10-31T17:08:05;13.80;71.90
42841;DHT22;28491;46.898;7.660;2022-10-31T17:10:31;13.70;73.60
42841;DHT22;28491;46.898;7.660;2022-10-31T17:12:57;13.60;74.40
42841;DHT22;28491;46.898;7.660;2022-10-31T17:15:26;13.60;75.30
42841;DHT22;28491;46.898;7.660;2022-10-31T17:17:52;13.60;74.60
42841;DHT22;28491;46.898;7.660;2022-10-31T17:20:27;13.50;74.70
42841;DHT22;28491;46.898;7.660;2022-10-31T17:22:53;13.30;76.70
42841;DHT22;28491;46.898;7.660;2022-10-31T17:25:23;13.20;77.80
42841;DHT22;28491;46.898;7.660;2022-10-31T17:27:50;13.10;78.60
42841;DHT22;28491;46.898;7.660;2022-10-31T17:30:17;13.00;79.40
42841;DHT22;28491;46.898;7.660;2022-10-31T17:32:46;13.00;80.50
42841;DHT22;28491;46.898;7.660;2022-10-31T17:35:13;13.00;79.30
42841;DHT22;28491;46.898;7.660;2022-10-31T17:37:40;12.90;79.00
42841;DHT22;28491;46.898;7.660;2022-10-31T17:40:10;12.90;80.20
42841;DHT22;28491;46.898;7.660;2022-10-31T17:42:37;12.80;81.20
42841;DHT22;28491;46.898;7.660;2022-10-31T17:45:04;12.80;82.00
42841;DHT22;28491;46.898;7.660;2022-10-31T17:47:29;12.70;81.40
42841;DHT22;28491;46.898;7.660;2022-10-31T17:49:55;12.70;82.70
42841;DHT22;28491;46.898;7.660;2022-10-31T17:52:21;12.60;83.60
42841;DHT22;28491;46.898;7.660;2022-10-31T17:54:46;12.60;84.70
42841;DHT22;28491;46.898;7.660;2022-10-31T17:57:12;12.70;86.00
42841;DHT22;28491;46.898;7.660;2022-10-31T17:59:38;12.60;83.70
42841;DHT22;28491;46.898;7.660;2022-10-31T18:02:03;12.60;83.80
42841;DHT22;28491;46.898;7.660;2022-10-31T18:04:37;12.80;84.00
42841;DHT22;28491;46.898;7.660;2022-10-31T18:07:03;12.70;82.20
42841;DHT22;28491;46.898;7.660;2022-10-31T18:09:29;12.60;82.20
42841;DHT22;28491;46.898;7.660;2022-10-31T18:11:55;12.50;82.30
42841;DHT22;28491;46.898;7.660;2022-10-31T18:14:20;12.40;83.80
42841;DHT22;28491;46.898;7.660;2022-10-31T18:16:46;12.40;85.70